Time;durP1;ratioP1;P1;durP2;ratioP2;P2;SDS_P1;SDS_P2;PMS_P1;PMS_P2;Temp;Humidity;BMP_temperature;BMP_pressure;BME280_temperature;BME280_humidity;BME280_pressure;Samples;Min_cycle;Max_cycle;Signal;HPM_P1;HPM_P2
2021/03/09 00:00:20;;;;;;;29.13;18.20;;;51.40;1817.60;;;;;;4903083;29;20072;-68
2021/03/09 00:02:46;;;;;;;29.55;18.25;;;51.40;1817.60;;;;;;4906731;29;20035;-69
2021/03/09 00:05:12;;;;;;;31.20;18.20;;;51.40;1817.60;;;;;;4897532;29;20040;-68
2021/03/09 00:07:40;;;;;;;35.17;19.63;;;51.40;1817.60;;;;;;4900178;29;20116;-69
2021/03/09 00:10:08;;;;;;;32.38;21.83;;;51.40;1817.60;;;;;;4897454;29;20080;-69
2021/03/09 00:12:34;;;;;;;30.73;18.63;;;51.30;1817.60;;;;;;4912835;29;20485;-69
2021/03/09 00:14:59;;;;;;;33.42;19.35;;;51.30;1843.20;;;;;;4903502;29;20043;-68
2021/03/09 00:17:25;;;;;;;34.20;19.85;;;51.20;1843.20;;;;;;4912551;29;20436;-68
2021/03/09 00:19:51;;;;;;;35.75;22.40;;;26.50;1817.60;;;;;;4906477;29;20039;-68
2021/03/09 00:22:16;;;;;;;34.72;22.50;;;26.50;1817.60;;;;;;4902740;29;20075;-68
2021/03/09 00:24:42;;;;;;;32.78;20.48;;;26.50;1817.60;;;;;;4899510;29;20028;-69
2021/03/09 00:27:11;;;;;;;40.63;21.88;;;26.50;1843.20;;;;;;4903177;29;20461;-69
2021/03/09 00:29:37;;;;;;;35.38;22.30;;;26.50;1843.20;;;;;;4909151;29;20036;-69
2021/03/09 00:32:07;;;;;;;31.40;20.63;;;26.50;1817.60;;;;;;4924987;29;20440;-69
2021/03/09 00:34:33;;;;;;;40.42;24.17;;;26.50;1817.60;;;;;;4915437;29;20067;-68
2021/03/09 00:36:59;;;;;;;46.25;24.08;;;51.20;1843.20;;;;;;4921575;29;20035;-69
2021/03/09 00:39:25;;;;;;;37.95;23.15;;;51.20;1843.20;;;;;;4925205;29;20028;-69
2021/03/09 00:41:51;;;;;;;39.35;23.73;;;26.50;1817.60;;;;;;4906434;29;20047;-69
2021/03/09 00:44:17;;;;;;;39.33;24.20;;;26.50;1843.20;;;;;;4932423;29;20027;-70
2021/03/09 00:46:42;;;;;;;41.38;26.23;;;26.50;1843.20;;;;;;4906748;29;20032;-68
2021/03/09 00:49:08;;;;;;;37.58;23.60;;;51.20;1868.80;;;;;;4920215;29;20157;-68
2021/03/09 00:51:34;;;;;;;37.38;24.02;;;51.20;1868.80;;;;;;4916603;29;20021;-69
2021/03/09 00:54:00;;;;;;;36.72;21.83;;;51.20;1843.20;;;;;;4898611;29;20035;-67
2021/03/09 00:56:25;;;;;;;32.20;19.02;;;26.50;1817.60;;;;;;4926670;29;20028;-68
2021/03/09 00:58:51;;;;;;;33.30;20.55;;;26.50;1817.60;;;;;;4930677;29;20047;-67
2021/03/09 01:01:17;;;;;;;35.30;22.73;;;26.30;1843.20;;;;;;4924955;29;20508;-70
2021/03/09 01:03:43;;;;;;;33.35;19.92;;;26.30;1843.20;;;;;;4923614;29;20040;-67
2021/03/09 01:06:08;;;;;;;33.30;19.60;;;26.20;1843.20;;;;;;4924118;29;20055;-68
2021/03/09 01:08:34;;;;;;;32.13;19.75;;;26.10;1843.20;;;;;;4919089;29;20551;-68
2021/03/09 01:11:00;;;;;;;40.15;20.58;;;26.10;1843.20;;;;;;4915309;29;20103;-68
2021/03/09 01:13:27;;;;;;;35.28;21.45;;;26.00;1843.20;;;;;;4932102;29;20028;-68
2021/03/09 01:15:52;;;;;;;40.33;22.80;;;25.90;1843.20;;;;;;4920282;29;20043;-69
2021/03/09 01:18:19;;;;;;;35.10;23.70;;;25.80;1868.80;;;;;;4899107;29;20078;-69
2021/03/09 01:20:46;;;;;;;33.80;20.55;;;25.70;1894.40;;;;;;4929169;29;20793;-69
2021/03/09 01:23:12;;;;;;;36.30;22.25;;;25.70;1894.40;;;;;;4906753;29;20748;-69
2021/03/09 01:25:38;;;;;;;40.15;22.40;;;25.60;1894.40;;;;;;4925023;29;20059;-69
2021/03/09 01:28:04;;;;;;;35.67;21.58;;;25.60;1920.00;;;;;;4911706;29;20032;-68
2021/03/09 01:30:30;;;;;;;41.83;22.20;;;0.90;1920.00;;;;;;4922286;29;20032;-69
2021/03/09 01:32:56;;;;;;;39.28;23.75;;;0.90;1945.60;;;;;;4905650;29;20028;-71
2021/03/09 01:35:21;;;;;;;39.30;22.50;;;0.80;1945.60;;;;;;4921188;29;20108;-70
2021/03/09 01:37:47;;;;;;;36.78;22.77;;;0.80;1945.60;;;;;;4944423;29;20026;-68
2021/03/09 01:40:13;;;;;;;38.53;21.70;;;0.80;1971.20;;;;;;4950905;29;20037;-69
2021/03/09 01:42:39;;;;;;;35.40;22.30;;;0.80;1971.20;;;;;;4928219;29;20473;-69
2021/03/09 01:45:07;;;;;;;38.63;21.63;;;0.70;1971.20;;;;;;4925012;29;20050;-69
2021/03/09 01:47:36;;;;;;;37.05;21.63;;;0.70;1971.20;;;;;;4924759;29;20035;-70
2021/03/09 01:50:03;;;;;;;41.42;22.13;;;0.70;1971.20;;;;;;4919064;29;20067;-68
2021/03/09 01:52:30;;;;;;;41.97;22.13;;;0.70;1996.80;;;;;;4907644;29;20044;-68
2021/03/09 01:54:56;;;;;;;35.90;21.50;;;0.60;1996.80;;;;;;4930153;29;20027;-70
2021/03/09 01:57:22;;;;;;;32.55;20.75;;;0.60;1996.80;;;;;;4911572;29;20064;-68
2021/03/09 01:59:50;;;;;;;34.53;21.35;;;0.60;1996.80;;;;;;4934260;29;20051;-70
2021/03/09 02:02:16;;;;;;;35.08;22.50;;;0.50;2022.40;;;;;;4925076;29;20024;-68
2021/03/09 02:04:41;;;;;;;37.15;20.58;;;0.50;2022.40;;;;;;4924802;29;20036;-68
2021/03/09 02:07:07;;;;;;;32.45;20.25;;;0.40;2022.40;;;;;;4925616;29;20090;-70
2021/03/09 02:09:34;;;;;;;32.97;20.05;;;0.40;2022.40;;;;;;4934534;29;20024;-69
2021/03/09 02:12:09;;;;;;;39.13;22.50;;;0.40;2022.40;;;;;;4922743;29;20039;-69
2021/03/09 02:14:51;;;;;;;32.45;20.08;;;0.30;2022.40;;;;;;4920863;29;20055;-69
2021/03/09 02:17:41;;;;;;;36.42;20.38;;;0.30;2022.40;;;;;;4928993;29;20035;-69
2021/03/09 02:20:25;;;;;;;35.33;20.15;;;0.20;2048.00;;;;;;4928651;29;20027;-69
2021/03/09 02:23:14;;;;;;;32.22;19.13;;;0.30;2022.40;;;;;;4919120;29;20042;-69
2021/03/09 02:25:50;;;;;;;34.05;20.00;;;0.20;2022.40;;;;;;4921327;29;20024;-68
2021/03/09 02:28:38;;;;;;;;;;;0.10;2048.00;;;;;;4927248;29;20186;-68
2021/03/09 02:31:06;;;;;;;35.13;18.42;;;0.00;2048.00;;;;;;4923802;29;20340;-69
2021/03/09 02:33:46;;;;;;;28.92;17.75;;;0.00;2048.00;;;;;;4914563;29;20051;-69
2021/03/09 02:36:19;;;;;;;35.67;18.85;;;0.10;2048.00;;;;;;4942188;29;20555;-69
2021/03/09 02:39:03;;;;;;;35.22;17.98;;;0.00;2048.00;;;;;;4926295;29;20025;-69
2021/03/09 02:41:30;;;;;;;29.63;15.65;;;0.10;2022.40;;;;;;4920191;29;20119;-67
2021/03/09 02:43:57;;;;;;;27.20;16.23;;;0.10;2022.40;;;;;;4915775;29;20039;-67
2021/03/09 02:46:28;;;;;;;30.85;18.25;;;0.10;2022.40;;;;;;4927344;29;20032;-70
2021/03/09 02:48:55;;;;;;;29.73;16.52;;;0.10;2022.40;;;;;;4926422;29;20032;-69
2021/03/09 02:51:26;;;;;;;27.23;16.08;;;0.10;1996.80;;;;;;4916283;29;20591;-69
2021/03/09 02:53:54;;;;;;;30.52;15.27;;;0.10;1996.80;;;;;;4927958;29;20027;-69
2021/03/09 02:56:23;;;;;;;26.50;15.30;;;0.20;1996.80;;;;;;4918834;29;20024;-69
2021/03/09 02:58:52;;;;;;;24.75;13.77;;;0.20;1971.20;;;;;;4905748;29;20043;-69
2021/03/09 03:01:20;;;;;;;25.30;14.68;;;0.30;1945.60;;;;;;4915819;29;20036;-69
2021/03/09 03:03:48;;;;;;;23.95;13.73;;;0.30;1945.60;;;;;;4915889;29;20360;-69
2021/03/09 03:06:15;;;;;;;21.38;12.82;;;0.30;1945.60;;;;;;4914605;29;20039;-70
2021/03/09 03:08:42;;;;;;;23.77;13.35;;;0.30;1920.00;;;;;;4917998;29;20036;-69
2021/03/09 03:11:10;;;;;;;22.83;13.75;;;0.20;1920.00;;;;;;4901298;29;20382;-69
2021/03/09 03:13:36;;;;;;;29.65;15.45;;;0.10;1945.60;;;;;;4931427;29;20027;-69
2021/03/09 03:16:03;;;;;;;22.52;14.35;;;0.10;1945.60;;;;;;4910885;29;20031;-68
2021/03/09 03:18:35;;;;;;;23.08;13.40;;;0.10;1945.60;;;;;;4928101;29;20485;-69
2021/03/09 03:21:02;;;;;;;20.73;12.13;;;0.10;1945.60;;;;;;4903853;29;20390;-69
2021/03/09 03:23:28;;;;;;;18.00;11.13;;;0.10;1920.00;;;;;;4919938;29;20031;-69
2021/03/09 03:25:55;;;;;;;18.00;10.82;;;0.20;1920.00;;;;;;4929646;29;20066;-69
2021/03/09 03:28:22;;;;;;;17.48;10.50;;;0.30;1894.40;;;;;;4932946;29;20036;-69
2021/03/09 03:30:49;;;;;;;17.23;11.15;;;0.40;1868.80;;;;;;4934545;29;20030;-68
2021/03/09 03:33:15;;;;;;;17.38;11.70;;;0.40;1868.80;;;;;;4903645;29;20082;-67
2021/03/09 03:35:41;;;;;;;16.95;10.07;;;0.40;1868.80;;;;;;4920445;29;20079;-67
2021/03/09 03:38:07;;;;;;;19.80;9.82;;;0.30;1868.80;;;;;;4905717;29;20032;-67
2021/03/09 03:40:33;;;;;;;17.15;9.15;;;0.50;1843.20;;;;;;4917385;29;20031;-67
2021/03/09 03:42:59;;;;;;;17.77;10.18;;;0.60;1843.20;;;;;;4900976;29;20027;-68
2021/03/09 03:45:25;;;;;;;17.02;10.95;;;0.60;1843.20;;;;;;4923826;29;20036;-68
2021/03/09 03:47:58;;;;;;;20.08;10.85;;;0.60;1843.20;;;;;;4936588;29;20453;-67
2021/03/09 03:50:25;;;;;;;20.63;11.95;;;0.50;1843.20;;;;;;4897874;29;20036;-67
2021/03/09 03:53:15;;;;;;;21.80;11.80;;;0.50;1843.20;;;;;;4923101;29;20513;-68
2021/03/09 03:56:14;;;;;;;20.40;12.60;;;0.60;1868.80;;;;;;4933451;29;20153;-68
2021/03/09 03:59:08;;;;;;;24.25;12.27;;;0.50;1868.80;;;;;;4901569;29;20040;-68
2021/03/09 04:01:35;;;;;;;21.92;11.25;;;0.50;1868.80;;;;;;4908017;29;20063;-68
2021/03/09 04:04:06;;;;;;;22.38;12.05;;;0.40;1868.80;;;;;;4908919;29;20044;-67
2021/03/09 04:06:33;;;;;;;18.90;11.48;;;0.40;1868.80;;;;;;4905105;29;20149;-70
2021/03/09 04:09:05;;;;;;;17.08;10.20;;;0.30;1868.80;;;;;;4896508;29;20036;-67
2021/03/09 04:11:32;;;;;;;19.17;9.82;;;0.40;1868.80;;;;;;4906214;29;20075;-68
2021/03/09 04:13:59;;;;;;;19.23;11.48;;;0.40;1868.80;;;;;;4903578;29;20111;-68
2021/03/09 04:16:25;;;;;;;17.27;10.60;;;0.40;1868.80;;;;;;4908193;29;20469;-68
2021/03/09 04:18:53;;;;;;;18.60;11.25;;;0.40;1868.80;;;;;;4908774;29;20033;-68
2021/03/09 04:21:19;;;;;;;22.38;10.60;;;0.40;1868.80;;;;;;4910296;29;20064;-68
2021/03/09 04:23:45;;;;;;;18.80;11.43;;;0.30;1868.80;;;;;;4904958;29;20024;-68
2021/03/09 04:26:13;;;;;;;16.58;10.73;;;0.20;1894.40;;;;;;4908001;29;20028;-68
2021/03/09 04:28:39;;;;;;;15.43;9.68;;;0.20;1894.40;;;;;;4906739;29;20079;-68
2021/03/09 04:31:05;;;;;;;20.63;12.57;;;0.30;1868.80;;;;;;4910633;29;20481;-68
2021/03/09 04:33:32;;;;;;;20.00;12.05;;;0.30;1894.40;;;;;;4905699;29;20039;-68
2021/03/09 04:35:58;;;;;;;21.63;11.35;;;0.30;1894.40;;;;;;4929522;29;20044;-68
2021/03/09 04:38:25;;;;;;;22.45;12.93;;;0.20;1894.40;;;;;;4920084;29;20043;-68
2021/03/09 04:40:51;;;;;;;24.35;13.27;;;0.20;1894.40;;;;;;4924549;29;20035;-68
2021/03/09 04:43:18;;;;;;;20.00;11.35;;;12.90;1920.00;;;;;;4918865;29;20027;-68
2021/03/09 04:45:44;;;;;;;20.10;12.30;;;0.00;1920.00;;;;;;4928062;29;20028;-68
2021/03/09 04:48:10;;;;;;;27.00;13.25;;;12.90;1920.00;;;;;;4920366;29;20042;-68
2021/03/09 04:50:38;;;;;;;23.08;12.82;;;12.90;1945.60;;;;;;4907579;29;20035;-67
2021/03/09 04:53:07;;;;;;;27.63;15.77;;;12.90;1920.00;;;;;;4926137;29;20167;-68
2021/03/09 04:55:33;;;;;;;18.65;11.02;;;13.00;1920.00;;;;;;4918426;29;20071;-68
2021/03/09 04:58:01;;;;;;;19.95;11.45;;;13.00;1945.60;;;;;;4924293;29;20051;-68
2021/03/09 05:00:28;;;;;;;20.38;11.63;;;12.90;1920.00;;;;;;4907416;29;20397;-70
2021/03/09 05:02:54;;;;;;;19.65;10.07;;;12.90;1945.60;;;;;;4907461;29;20516;-69
2021/03/09 05:05:23;;;;;;;18.70;11.25;;;0.00;1920.00;;;;;;4925573;29;20031;-69
2021/03/09 05:07:50;;;;;;;18.70;10.98;;;0.00;1920.00;;;;;;4921134;29;20031;-69
2021/03/09 05:10:16;;;;;;;18.85;10.23;;;0.00;1894.40;;;;;;4926246;29;20111;-67
2021/03/09 05:12:44;;;;;;;19.35;11.60;;;0.10;1894.40;;;;;;4918612;29;20032;-69
2021/03/09 05:15:11;;;;;;;20.08;10.75;;;0.10;1894.40;;;;;;4909915;29;20047;-69
2021/03/09 05:17:38;;;;;;;24.25;14.88;;;0.20;1894.40;;;;;;4932234;29;20106;-69
2021/03/09 05:20:05;;;;;;;24.33;13.25;;;0.20;1894.40;;;;;;4921085;29;20032;-68
2021/03/09 05:22:31;;;;;;;25.20;13.52;;;0.20;1894.40;;;;;;4937954;29;20397;-68
2021/03/09 05:24:56;;;;;;;22.52;12.00;;;0.20;1868.80;;;;;;4921320;29;20027;-67
2021/03/09 05:27:22;;;;;;;20.65;12.52;;;0.20;1868.80;;;;;;4910421;29;20037;-68
2021/03/09 05:29:48;;;;;;;20.90;12.55;;;0.30;1868.80;;;;;;4920001;29;20497;-68
2021/03/09 05:32:13;;;;;;;18.55;12.32;;;0.30;1868.80;;;;;;4943621;29;20039;-69
2021/03/09 05:34:39;;;;;;;19.95;11.43;;;0.30;1843.20;;;;;;4929586;29;20093;-69
2021/03/09 05:37:08;;;;;;;26.23;11.85;;;0.40;1843.20;;;;;;4932978;29;20361;-69
2021/03/09 05:39:34;;;;;;;19.00;10.35;;;0.40;1843.20;;;;;;4929690;29;20032;-69
2021/03/09 05:42:00;;;;;;;15.30;9.98;;;0.40;1843.20;;;;;;4925867;29;20024;-69
2021/03/09 05:44:25;;;;;;;19.02;9.60;;;0.40;1843.20;;;;;;4909085;29;20046;-69
2021/03/09 05:46:51;;;;;;;15.55;10.07;;;0.30;1843.20;;;;;;4929356;29;20457;-69
2021/03/09 05:49:17;;;;;;;16.70;9.13;;;0.40;1843.20;;;;;;4920385;29;20438;-69
2021/03/09 05:51:43;;;;;;;17.27;9.20;;;0.50;1817.60;;;;;;4926466;29;20111;-68
2021/03/09 05:54:09;;;;;;;16.95;9.15;;;0.60;1817.60;;;;;;4929390;29;20096;-69
2021/03/09 05:56:34;;;;;;;18.15;10.07;;;0.60;1817.60;;;;;;4921074;29;20032;-69
2021/03/09 05:59:01;;;;;;;17.40;10.40;;;0.70;1817.60;;;;;;4941121;29;20035;-68
2021/03/09 06:01:27;;;;;;;22.40;11.52;;;0.80;1792.00;;;;;;4922445;29;20032;-68
2021/03/09 06:03:53;;;;;;;21.83;12.35;;;0.70;1792.00;;;;;;4930924;29;20745;-68
2021/03/09 06:06:18;;;;;;;15.95;10.52;;;0.70;1817.60;;;;;;4910784;29;20051;-68
2021/03/09 06:08:45;;;;;;;19.63;10.57;;;0.70;1817.60;;;;;;4897679;29;20040;-68
2021/03/09 06:11:13;;;;;;;19.90;11.27;;;0.70;1817.60;;;;;;4916073;29;20032;-68
2021/03/09 06:13:39;;;;;;;19.92;11.30;;;0.80;1792.00;;;;;;4916065;29;20092;-68
2021/03/09 06:16:04;;;;;;;23.45;13.70;;;0.80;1792.00;;;;;;4912598;29;20036;-68
2021/03/09 06:18:30;;;;;;;17.65;12.02;;;0.90;1792.00;;;;;;4915240;29;20032;-68
2021/03/09 06:21:13;;;;;;;22.75;11.70;;;25.60;1766.40;;;;;;4915455;29;20031;-69
2021/03/09 06:23:40;;;;;;;20.50;10.80;;;25.60;1766.40;;;;;;4922499;29;20115;-68
2021/03/09 06:26:37;;;;;;;17.33;10.40;;;25.70;1766.40;;;;;;4920829;29;20034;-68
2021/03/09 06:29:11;;;;;;;21.00;10.57;;;25.80;1766.40;;;;;;4902781;29;20049;-68
2021/03/09 06:31:57;;;;;;;17.05;10.80;;;25.80;1766.40;;;;;;4894815;29;20037;-68
2021/03/09 06:34:24;;;;;;;16.20;9.80;;;25.70;1766.40;;;;;;4908848;29;20075;-68
2021/03/09 06:37:11;;;;;;;18.85;10.13;;;25.80;1766.40;;;;;;4903550;29;20055;-68
2021/03/09 06:39:49;;;;;;;16.40;11.02;;;25.90;1766.40;;;;;;4901451;29;20074;-68
2021/03/09 06:42:18;;;;;;;18.02;10.95;;;26.00;1740.80;;;;;;4875510;29;20403;-68
2021/03/09 06:44:55;;;;;;;13.15;8.77;;;26.20;1766.40;;;;;;4886376;29;20127;-68
2021/03/09 06:47:40;;;;;;;17.98;12.45;;;26.20;1740.80;;;;;;4907898;29;20080;-69
2021/03/09 06:50:33;;;;;;;25.02;13.73;;;26.30;1740.80;;;;;;4879990;29;20073;-68
2021/03/09 06:53:01;;;;;;;12.27;9.13;;;26.50;1740.80;;;;;;4897907;29;20031;-68
2021/03/09 06:55:31;;;;;;;17.92;10.35;;;51.20;1766.40;;;;;;4902535;29;20147;-68
2021/03/09 06:58:12;;;;;;;16.52;9.55;;;51.30;1740.80;;;;;;4899997;29;20024;-69
2021/03/09 07:00:39;;;;;;;17.52;9.82;;;51.50;1740.80;;;;;;4885746;29;20443;-68
2021/03/09 07:03:05;;;;;;;12.43;9.73;;;51.60;1715.20;;;;;;4896728;29;20040;-69
2021/03/09 07:05:30;;;;;;;14.02;8.00;;;51.70;1689.60;;;;;;4903304;29;20066;-68
2021/03/09 07:07:56;;;;;;;17.40;9.18;;;51.90;1664.00;;;;;;4910801;29;20032;-68
2021/03/09 07:10:30;;;;;;;12.52;8.38;;;52.10;1638.40;;;;;;4911356;29;20533;-68
2021/03/09 07:12:56;;;;;;;32.38;8.73;;;76.90;1612.80;;;;;;4912554;29;20016;-68
2021/03/09 07:15:22;;;;;;;10.98;6.97;;;77.00;1587.20;;;;;;4908324;29;20101;-68
2021/03/09 07:17:51;;;;;;;13.70;8.43;;;77.10;1561.60;;;;;;4906917;29;20024;-68
2021/03/09 07:20:18;;;;;;;17.05;9.65;;;77.30;1561.60;;;;;;4927599;29;20071;-68
2021/03/09 07:22:45;;;;;;;14.00;8.23;;;77.40;1561.60;;;;;;4915414;29;20024;-68
2021/03/09 07:25:16;;;;;;;11.60;7.55;;;77.60;1536.00;;;;;;4934922;29;20059;-69
2021/03/09 07:28:03;;;;;;;17.60;8.95;;;102.40;1510.40;;;;;;4904021;29;20036;-69
2021/03/09 07:30:38;;;;;;;17.15;8.65;;;102.40;1510.40;;;;;;4922286;29;20032;-69
2021/03/09 07:33:05;;;;;;;13.13;7.43;;;102.60;1484.80;;;;;;4914983;29;20163;-70
2021/03/09 07:35:31;;;;;;;13.18;7.50;;;102.70;1459.20;;;;;;4914904;29;20063;-69
2021/03/09 07:38:02;;;;;;;15.20;7.53;;;102.80;1459.20;;;;;;4906280;29;20118;-69
2021/03/09 07:40:30;;;;;;;14.02;9.90;;;103.00;1459.20;;;;;;4925405;29;20071;-69
2021/03/09 07:42:57;;;;;;;19.15;7.68;;;103.10;1459.20;;;;;;4919520;29;20036;-69
2021/03/09 07:45:30;;;;;;;12.85;8.10;;;103.20;1459.20;;;;;;4908290;29;20139;-69
2021/03/09 07:48:07;;;;;;;10.90;6.20;;;103.30;1433.60;;;;;;4914737;29;20358;-69
2021/03/09 07:50:44;;;;;;;13.77;7.20;;;128.00;1459.20;;;;;;4923581;29;20032;-70
2021/03/09 07:53:12;;;;;;;14.02;7.13;;;128.20;1459.20;;;;;;4916465;29;20072;-69
2021/03/09 07:55:42;;;;;;;10.35;6.63;;;128.30;1382.40;;;;;;4910902;29;20103;-69
2021/03/09 07:58:26;;;;;;;12.82;6.45;;;128.40;1382.40;;;;;;4923079;29;20055;-69
2021/03/09 08:01:03;;;;;;;14.82;9.05;;;128.50;1382.40;;;;;;4929575;29;20492;-69
2021/03/09 08:03:36;;;;;;;12.32;7.28;;;128.70;1356.80;;;;;;4915319;29;20032;-69
2021/03/09 08:06:04;;;;;;;10.90;7.40;;;128.70;1356.80;;;;;;4914906;29;20032;-70
2021/03/09 08:08:51;;;;;;;15.95;7.63;;;128.90;1356.80;;;;;;4923324;29;20020;-69
2021/03/09 08:11:20;;;;;;;13.73;7.68;;;153.80;1305.60;;;;;;4913789;29;20396;-69
2021/03/09 08:14:06;;;;;;;13.43;7.35;;;154.00;1305.60;;;;;;4914921;29;20111;-69
2021/03/09 08:16:42;;;;;;;10.40;6.17;;;153.90;1305.60;;;;;;4913937;29;20053;-70
2021/03/09 08:19:08;;;;;;;;;;;154.10;1305.60;;;;;;4915523;29;20263;-68
2021/03/09 08:21:39;;;;;;;23.47;9.00;;;154.40;1280.00;;;;;;4916675;29;19922;-70
2021/03/09 08:24:06;;;;;;;12.02;7.22;;;154.50;1280.00;;;;;;4922199;29;20031;-71
2021/03/09 08:26:31;;;;;;;10.50;7.28;;;154.40;1228.80;;;;;;4901315;29;20081;-70
2021/03/09 08:28:57;;;;;;;17.15;11.02;;;179.20;1228.80;;;;;;4919507;29;20055;-69
2021/03/09 08:31:27;;;;;;;19.05;11.45;;;179.50;1203.20;;;;;;4918249;29;20086;-69
2021/03/09 08:34:08;;;;;;;12.32;8.68;;;179.70;1177.60;;;;;;4915013;29;20079;-70
2021/03/09 08:36:36;;;;;;;49.75;26.00;;;180.10;1152.00;;;;;;4911692;29;20048;-69
2021/03/09 08:39:02;;;;;;;35.13;21.77;;;204.80;1152.00;;;;;;4929085;29;20082;-69
2021/03/09 08:41:29;;;;;;;24.25;15.38;;;204.90;1152.00;;;;;;4925379;29;20485;-69
2021/03/09 08:44:19;;;;;;;20.00;11.55;;;205.20;1152.00;;;;;;4913041;29;20040;-70
2021/03/09 08:46:51;;;;;;;27.52;13.82;;;205.30;1152.00;;;;;;4902755;29;20567;-71
2021/03/09 08:49:39;;;;;;;18.02;10.07;;;205.30;1152.00;;;;;;4914055;29;20036;-70
2021/03/09 08:52:14;;;;;;;17.40;11.75;;;205.40;1126.40;;;;;;4921692;29;20059;-70
2021/03/09 08:54:41;;;;;;;15.77;10.73;;;205.70;1100.80;;;;;;4907242;29;20076;-70
2021/03/09 08:57:26;;;;;;;16.83;9.18;;;230.60;1075.20;;;;;;4909869;29;20103;-70
2021/03/09 09:00:08;;;;;;;16.83;8.90;;;230.90;1024.00;;;;;;4921146;29;20032;-70
2021/03/09 09:02:41;;;;;;;10.68;7.65;;;231.20;1024.00;;;;;;4908389;29;20384;-70
2021/03/09 09:05:07;;;;;;;12.95;8.60;;;256.10;972.80;;;;;;4908618;29;20024;-70
2021/03/09 09:07:37;;;;;;;10.45;8.25;;;256.10;947.20;;;;;;4903820;29;20159;-69
2021/03/09 09:10:16;;;;;;;14.88;10.23;;;256.10;947.20;;;;;;4898866;29;20029;-69
2021/03/09 09:12:44;;;;;;;23.55;14.40;;;256.40;921.60;;;;;;4903530;29;20178;-68
2021/03/09 09:15:12;;;;;;;19.80;12.75;;;256.70;896.00;;;;;;4912003;29;20028;-70
2021/03/09 09:17:41;;;;;;;29.30;18.88;;;256.90;896.00;;;;;;4906890;29;20020;-70
2021/03/09 09:20:11;;;;;;;14.40;9.68;;;281.90;896.00;;;;;;4902778;29;20017;-70
2021/03/09 09:22:38;;;;;;;16.88;12.18;;;282.10;870.40;;;;;;4911271;29;20060;-70
2021/03/09 09:25:09;;;;;;;12.88;7.50;;;282.10;870.40;;;;;;4901112;29;20025;-69
2021/03/09 09:27:54;;;;;;;11.43;9.00;;;282.00;870.40;;;;;;4898975;29;20017;-70
2021/03/09 09:30:23;;;;;;;13.73;9.05;;;282.30;844.80;;;;;;4901572;29;20470;-70
2021/03/09 09:32:55;;;;;;;17.15;8.98;;;307.20;844.80;;;;;;4904496;29;20378;-69
2021/03/09 09:35:26;;;;;;;13.60;7.13;;;307.60;844.80;;;;;;4896900;29;20078;-69
2021/03/09 09:38:01;;;;;;;14.32;9.30;;;307.40;819.20;;;;;;4901576;29;20076;-70
2021/03/09 09:40:35;;;;;;;14.10;9.55;;;307.60;793.60;;;;;;4906753;29;20040;-69
2021/03/09 09:43:09;;;;;;;10.73;8.93;;;308.00;793.60;;;;;;4915006;29;20025;-70
2021/03/09 09:45:48;;;;;;;15.05;9.32;;;308.10;768.00;;;;;;4919493;29;20036;-70
2021/03/09 09:48:29;;;;;;;14.25;8.70;;;332.90;768.00;;;;;;4918442;29;20024;-69
2021/03/09 09:51:00;;;;;;;12.80;9.15;;;333.20;742.40;;;;;;4922126;29;20024;-70
2021/03/09 09:53:34;;;;;;;15.63;11.95;;;333.20;768.00;;;;;;4919931;29;20032;-69
2021/03/09 09:56:06;;;;;;;14.23;8.88;;;333.20;742.40;;;;;;4914508;29;20437;-69
2021/03/09 09:58:53;;;;;;;11.32;8.55;;;332.90;768.00;;;;;;4916173;29;20036;-69
2021/03/09 10:01:22;;;;;;;13.73;8.80;;;307.50;768.00;;;;;;4912541;29;20031;-70
2021/03/09 10:03:56;;;;;;;14.48;10.05;;;307.50;793.60;;;;;;4917414;29;20047;-70
2021/03/09 10:06:24;;;;;;;13.25;8.75;;;307.80;768.00;;;;;;4897461;29;20397;-70
2021/03/09 10:08:50;;;;;;;12.38;8.73;;;307.80;768.00;;;;;;4929169;29;20032;-70
2021/03/09 10:11:16;;;;;;;13.45;8.45;;;307.80;768.00;;;;;;4916711;29;20385;-70
2021/03/09 10:13:42;;;;;;;13.70;8.77;;;307.70;793.60;;;;;;4897005;29;20032;-70
2021/03/09 10:16:07;;;;;;;13.52;9.65;;;308.00;768.00;;;;;;4911258;29;20035;-70
2021/03/09 10:18:35;;;;;;;13.10;8.90;;;332.90;768.00;;;;;;4910838;29;20027;-70
2021/03/09 10:21:04;;;;;;;13.85;9.73;;;333.00;768.00;;;;;;4899590;29;20032;-69
2021/03/09 10:23:31;;;;;;;16.02;9.40;;;307.90;742.40;;;;;;4901013;29;20486;-69
2021/03/09 10:26:02;;;;;;;16.83;11.65;;;307.80;768.00;;;;;;4906500;29;20477;-70
2021/03/09 10:28:30;;;;;;;20.10;13.23;;;308.10;742.40;;;;;;4915253;29;20045;-69
2021/03/09 10:30:56;;;;;;;19.40;11.65;;;332.90;768.00;;;;;;4911223;29;20024;-69
2021/03/09 10:33:22;;;;;;;19.95;13.00;;;333.30;716.80;;;;;;4914125;29;20047;-70
2021/03/09 10:36:12;;;;;;;16.88;11.82;;;333.40;716.80;;;;;;4917035;29;20059;-70
2021/03/09 10:38:38;;;;;;;15.05;9.85;;;333.60;716.80;;;;;;4913366;29;20032;-70
2021/03/09 10:41:04;;;;;;;13.25;10.35;;;358.60;691.20;;;;;;4931331;29;20326;-70
2021/03/09 10:43:49;;;;;;;21.23;14.60;;;359.10;691.20;;;;;;4918753;29;20021;-70
2021/03/09 10:46:15;;;;;;;18.05;12.13;;;359.30;665.60;;;;;;4917572;29;20028;-70
2021/03/09 10:48:41;;;;;;;14.80;9.55;;;384.50;640.00;;;;;;4919860;29;20026;-70
2021/03/09 10:51:33;;;;;;;18.00;11.85;;;384.10;640.00;;;;;;4916014;29;20485;-70
2021/03/09 10:53:59;;;;;;;21.33;15.85;;;384.30;640.00;;;;;;4909775;29;20044;-70
2021/03/09 10:56:27;;;;;;;16.52;11.18;;;384.40;640.00;;;;;;4933603;29;20033;-70
2021/03/09 10:58:53;;;;;;;12.80;9.40;;;384.70;614.40;;;;;;4917296;29;20082;-70
2021/03/09 11:01:19;;;;;;;12.68;9.20;;;384.30;640.00;;;;;;4922585;29;20437;-70
2021/03/09 11:03:44;;;;;;;13.35;8.88;;;384.20;640.00;;;;;;4914661;29;20035;-70
2021/03/09 11:06:10;;;;;;;15.93;10.68;;;384.30;614.40;;;;;;4917669;29;20553;-70
2021/03/09 11:08:36;;;;;;;23.30;13.65;;;384.40;614.40;;;;;;4908831;29;20028;-70
2021/03/09 11:11:01;;;;;;;16.23;11.68;;;384.30;640.00;;;;;;4907186;29;20486;-69
2021/03/09 11:13:27;;;;;;;15.75;10.73;;;384.10;640.00;;;;;;4906329;29;20078;-70
2021/03/09 11:15:53;;;;;;;13.15;8.75;;;384.10;640.00;;;;;;4903807;29;20413;-69
2021/03/09 11:18:19;;;;;;;16.23;10.75;;;384.20;614.40;;;;;;4908055;29;20374;-70
2021/03/09 11:20:44;;;;;;;15.85;11.00;;;359.30;640.00;;;;;;4895134;29;20036;-70
2021/03/09 11:23:10;;;;;;;19.92;13.20;;;359.20;640.00;;;;;;4910183;29;20032;-70
2021/03/09 11:25:37;;;;;;;29.05;15.50;;;359.10;640.00;;;;;;4923652;29;20083;-70
2021/03/09 11:28:06;;;;;;;32.47;17.75;;;358.70;691.20;;;;;;4911557;29;20040;-70
2021/03/09 11:30:32;;;;;;;23.08;14.57;;;358.80;665.60;;;;;;4908415;29;20039;-69
2021/03/09 11:32:58;;;;;;;17.98;10.88;;;359.10;640.00;;;;;;4909293;29;20485;-70
2021/03/09 11:35:24;;;;;;;13.32;9.55;;;358.80;665.60;;;;;;4906255;29;20098;-70
2021/03/09 11:37:50;;;;;;;15.45;9.75;;;358.90;665.60;;;;;;4903730;29;20504;-70
2021/03/09 11:40:16;;;;;;;15.70;10.25;;;359.10;640.00;;;;;;4906700;29;20492;-70
2021/03/09 11:42:42;;;;;;;20.50;12.82;;;359.10;640.00;;;;;;4904452;29;20039;-70
2021/03/09 11:45:09;;;;;;;14.15;8.88;;;384.10;640.00;;;;;;4908874;29;20028;-70
2021/03/09 11:47:35;;;;;;;11.50;8.88;;;359.00;640.00;;;;;;4917192;29;20098;-69
2021/03/09 11:50:03;;;;;;;13.38;8.80;;;359.20;640.00;;;;;;4913031;29;20071;-69
2021/03/09 11:52:29;;;;;;;12.98;8.88;;;384.00;614.40;;;;;;4905063;29;20028;-69
2021/03/09 11:54:55;;;;;;;16.02;10.82;;;384.90;614.40;;;;;;4913095;29;20016;-69
2021/03/09 11:57:20;;;;;;;14.95;10.52;;;409.60;640.00;;;;;;4906285;29;20161;-70
2021/03/09 11:59:46;;;;;;;16.42;10.18;;;384.90;614.40;;;;;;4907396;29;20050;-70
2021/03/09 12:02:12;;;;;;;14.73;9.93;;;409.80;614.40;;;;;;4906436;29;20024;-69
2021/03/09 12:04:40;;;;;;;15.18;9.55;;;409.90;614.40;;;;;;4900940;29;20028;-69
2021/03/09 12:07:06;;;;;;;11.88;9.00;;;409.90;614.40;;;;;;4913731;29;20036;-70
2021/03/09 12:09:32;;;;;;;13.65;9.50;;;410.50;588.80;;;;;;4927997;29;20036;-69
2021/03/09 12:11:58;;;;;;;12.68;9.32;;;410.30;614.40;;;;;;4904677;29;20036;-69
2021/03/09 12:14:23;;;;;;;15.40;10.00;;;410.00;614.40;;;;;;4904371;29;20020;-69
2021/03/09 12:16:49;;;;;;;14.55;9.82;;;409.90;614.40;;;;;;4908623;29;20378;-69
2021/03/09 12:19:15;;;;;;;16.58;10.48;;;384.80;588.80;;;;;;4906391;29;20091;-69
2021/03/09 12:21:41;;;;;;;21.25;11.52;;;409.60;614.40;;;;;;4906522;29;20071;-69
2021/03/09 12:24:07;;;;;;;15.43;12.02;;;384.70;614.40;;;;;;4907625;29;20032;-69